createdAt,value
2018-10-05T00:00:32.144Z,99.90
2018-10-05T00:03:00.688Z,99.90
2018-10-05T00:05:29.272Z,99.90
2018-10-05T00:07:57.892Z,99.90
2018-10-05T00:10:26.480Z,99.90
2018-10-05T00:12:55.041Z,99.90
2018-10-05T00:15:23.470Z,99.90
2018-10-05T00:17:52.152Z,99.90
2018-10-05T00:20:20.703Z,99.90
2018-10-05T00:22:49.329Z,99.90
2018-10-05T00:25:17.628Z,99.90
2018-10-05T00:27:45.942Z,99.90
2018-10-05T00:30:14.228Z,99.90
2018-10-05T00:32:42.523Z,99.90
2018-10-05T00:35:10.852Z,99.90
2018-10-05T00:37:39.172Z,99.90
2018-10-05T00:40:07.531Z,99.90
2018-10-05T00:42:35.831Z,99.90
2018-10-05T00:45:04.196Z,99.90
2018-10-05T00:47:32.470Z,99.90
2018-10-05T00:50:00.795Z,99.90
2018-10-05T00:52:29.065Z,99.90
2018-10-05T00:54:57.412Z,99.90
2018-10-05T00:57:25.683Z,99.90
2018-10-05T00:59:53.972Z,99.90
2018-10-05T01:02:22.227Z,99.90
2018-10-05T01:04:50.523Z,99.90
2018-10-05T01:07:18.778Z,99.90
2018-10-05T01:09:47.098Z,99.90
2018-10-05T01:12:15.404Z,99.90
2018-10-05T01:14:43.648Z,99.90
2018-10-05T01:17:11.991Z,99.90
2018-10-05T01:19:40.286Z,99.90
2018-10-05T01:22:08.578Z,99.90
2018-10-05T01:24:36.904Z,99.90
2018-10-05T01:27:05.136Z,99.90
2018-10-05T01:29:33.441Z,99.90
2018-10-05T01:32:01.734Z,99.90
2018-10-05T01:34:30.099Z,99.90
2018-10-05T01:36:58.384Z,99.90
2018-10-05T01:39:26.784Z,99.90
2018-10-05T01:41:55.050Z,99.90
2018-10-05T01:44:23.322Z,99.90
2018-10-05T01:46:51.598Z,99.90
2018-10-05T01:49:19.963Z,99.90
2018-10-05T01:51:48.237Z,99.90
2018-10-05T01:54:16.576Z,99.90
2018-10-05T01:56:44.859Z,99.90
2018-10-05T01:59:13.135Z,99.90
2018-10-05T02:01:41.365Z,99.90
2018-10-05T02:04:09.619Z,99.90
2018-10-05T02:06:37.911Z,99.90
2018-10-05T02:09:06.609Z,99.90
2018-10-05T02:11:34.920Z,99.90
2018-10-05T02:14:03.237Z,99.90
2018-10-05T02:16:31.773Z,99.90
2018-10-05T02:19:00.100Z,99.90
2018-10-05T02:21:28.343Z,99.90
2018-10-05T02:23:56.667Z,99.90
2018-10-05T02:26:24.956Z,99.90
2018-10-05T02:28:53.253Z,99.90
2018-10-05T02:31:21.589Z,99.90
2018-10-05T02:33:49.864Z,99.90
2018-10-05T02:36:18.220Z,99.90
2018-10-05T02:38:46.555Z,99.90
2018-10-05T02:41:14.815Z,99.90
2018-10-05T02:43:43.138Z,99.90
2018-10-05T02:46:11.428Z,99.90
2018-10-05T02:48:39.723Z,99.90
2018-10-05T02:51:08.014Z,99.90
2018-10-05T02:53:36.291Z,99.90
2018-10-05T02:56:04.631Z,99.90
2018-10-05T02:58:32.960Z,99.90
2018-10-05T03:01:12.590Z,99.90
2018-10-05T03:03:40.878Z,99.90
2018-10-05T03:06:09.155Z,99.90
2018-10-05T03:08:37.464Z,99.90
2018-10-05T03:11:06.159Z,99.90
2018-10-05T03:13:34.497Z,99.90
2018-10-05T03:16:02.816Z,99.90
2018-10-05T03:18:31.132Z,99.90
2018-10-05T03:20:59.413Z,99.90
2018-10-05T03:23:27.734Z,99.90
2018-10-05T03:25:56.040Z,99.90
2018-10-05T03:28:24.292Z,99.90
2018-10-05T03:30:52.563Z,99.90
2018-10-05T03:33:20.825Z,99.90
2018-10-05T03:35:49.068Z,99.90
2018-10-05T03:38:17.496Z,99.90
2018-10-05T03:40:45.793Z,99.90
2018-10-05T03:43:14.060Z,99.90
2018-10-05T03:45:42.292Z,99.90
2018-10-05T03:48:10.521Z,99.90
2018-10-05T03:50:38.778Z,99.90
2018-10-05T03:53:07.206Z,99.90
2018-10-05T03:55:35.473Z,99.90
2018-10-05T03:58:03.676Z,99.90
2018-10-05T04:00:31.924Z,99.90
2018-10-05T04:03:00.163Z,99.90
2018-10-05T04:05:28.423Z,99.90
2018-10-05T04:07:56.648Z,99.90
2018-10-05T04:10:25.325Z,99.90
2018-10-05T04:12:53.584Z,99.90
2018-10-05T04:15:21.883Z,99.90
2018-10-05T04:17:50.148Z,99.90
2018-10-05T04:20:18.395Z,99.90
2018-10-05T04:22:46.781Z,99.90
2018-10-05T04:25:15.032Z,99.90
2018-10-05T04:27:43.275Z,99.90
2018-10-05T04:30:11.557Z,99.90
2018-10-05T04:32:39.891Z,99.90
2018-10-05T04:35:08.535Z,99.90
2018-10-05T04:37:37.029Z,99.90
2018-10-05T04:40:05.549Z,99.90
2018-10-05T04:42:34.332Z,99.90
2018-10-05T04:45:02.678Z,99.90
2018-10-05T04:47:31.089Z,99.90
2018-10-05T04:49:59.478Z,99.90
2018-10-05T04:52:27.887Z,99.90
2018-10-05T04:54:56.256Z,99.90
2018-10-05T04:57:24.621Z,99.90
2018-10-05T04:59:52.945Z,99.90
2018-10-05T05:02:22.529Z,99.90
2018-10-05T05:04:50.801Z,99.90
2018-10-05T05:07:19.133Z,99.90
2018-10-05T05:09:47.480Z,99.90
2018-10-05T05:12:15.859Z,99.90
2018-10-05T05:14:44.120Z,99.90
2018-10-05T05:17:12.429Z,99.90
2018-10-05T05:19:40.819Z,99.90
2018-10-05T05:22:09.227Z,99.90
2018-10-05T05:24:37.595Z,99.90
2018-10-05T05:27:05.886Z,99.90
2018-10-05T05:29:34.296Z,99.90
2018-10-05T05:32:02.625Z,99.90
2018-10-05T05:34:30.961Z,99.90
2018-10-05T05:36:59.223Z,99.90
2018-10-05T05:39:27.520Z,99.90
2018-10-05T05:41:55.789Z,99.90
2018-10-05T05:44:24.065Z,99.90
2018-10-05T05:46:52.329Z,99.90
2018-10-05T05:49:20.529Z,99.90
2018-10-05T05:51:48.920Z,99.90
2018-10-05T05:54:17.188Z,99.90
2018-10-05T05:56:45.381Z,99.90
2018-10-05T05:59:13.809Z,99.90
2018-10-05T06:01:42.305Z,99.90
2018-10-05T06:04:11.547Z,99.90
2018-10-05T06:06:39.984Z,99.90
2018-10-05T06:09:09.423Z,99.90
2018-10-05T06:11:37.806Z,99.90
2018-10-05T06:14:06.420Z,99.90
2018-10-05T06:16:34.963Z,99.90
2018-10-05T06:19:03.279Z,99.90
2018-10-05T06:21:31.783Z,99.90
2018-10-05T06:24:00.041Z,99.90
2018-10-05T06:26:28.489Z,99.90
2018-10-05T06:28:56.900Z,99.90
2018-10-05T06:31:25.346Z,99.90
2018-10-05T06:33:54.104Z,99.90
2018-10-05T06:36:22.367Z,99.90
2018-10-05T06:38:50.635Z,99.90
2018-10-05T06:41:19.025Z,99.90
2018-10-05T06:43:47.265Z,99.90
2018-10-05T06:46:15.564Z,99.90
2018-10-05T06:48:43.835Z,99.90
2018-10-05T06:51:12.113Z,99.90
2018-10-05T06:53:40.610Z,99.90
2018-10-05T06:56:08.903Z,99.90
2018-10-05T06:58:37.170Z,99.90
2018-10-05T07:01:05.534Z,99.90
2018-10-05T07:03:33.810Z,99.90
2018-10-05T07:06:02.197Z,99.90
2018-10-05T07:08:30.468Z,99.90
2018-10-05T07:10:59.172Z,99.90
2018-10-05T07:13:27.431Z,99.90
2018-10-05T07:15:55.764Z,99.90
2018-10-05T07:18:24.040Z,99.90
2018-10-05T07:20:52.312Z,99.90
2018-10-05T07:23:20.575Z,99.90
2018-10-05T07:25:49.526Z,99.90
2018-10-05T07:28:17.990Z,99.90
2018-10-05T07:30:46.250Z,99.90
2018-10-05T07:33:14.618Z,99.90
2018-10-05T07:35:42.909Z,99.90
2018-10-05T07:38:11.178Z,99.90
2018-10-05T07:40:39.487Z,99.90
2018-10-05T07:43:07.764Z,99.90
2018-10-05T07:45:35.988Z,99.90
2018-10-05T07:48:04.342Z,99.90
2018-10-05T07:50:32.925Z,99.90
2018-10-05T07:53:02.602Z,99.90
2018-10-05T07:55:31.418Z,99.90
2018-10-05T07:58:01.050Z,99.90
2018-10-05T08:00:29.970Z,99.90
2018-10-05T08:02:59.381Z,99.90
2018-10-05T08:05:29.795Z,99.90
2018-10-05T08:07:59.106Z,99.90
2018-10-05T08:10:30.087Z,99.90
2018-10-05T08:13:00.373Z,99.90
2018-10-05T08:15:29.561Z,99.90
2018-10-05T08:18:00.108Z,99.90
2018-10-05T08:20:29.258Z,99.90
2018-10-05T08:22:58.862Z,99.90
2018-10-05T08:25:29.214Z,99.90
2018-10-05T08:27:59.154Z,99.90
2018-10-05T08:30:28.390Z,99.90
2018-10-05T08:32:56.875Z,99.90
2018-10-05T08:35:26.967Z,99.90
2018-10-05T08:37:57.710Z,99.90
2018-10-05T08:40:27.271Z,99.90
2018-10-05T08:42:57.921Z,99.90
2018-10-05T08:45:27.278Z,99.90
2018-10-05T08:47:57.460Z,99.90
2018-10-05T08:50:26.792Z,99.90
2018-10-05T08:52:56.456Z,99.90
2018-10-05T08:55:24.840Z,99.90
2018-10-05T08:57:53.329Z,99.90
2018-10-05T09:00:23.645Z,99.90
2018-10-05T09:02:55.669Z,99.90
2018-10-05T09:05:27.984Z,99.90
2018-10-05T09:08:01.227Z,99.90
2018-10-05T09:10:31.012Z,99.90
2018-10-05T09:13:03.777Z,99.90
2018-10-05T09:15:37.355Z,99.90
2018-10-05T09:18:07.182Z,99.90
2018-10-05T09:20:38.637Z,99.90
2018-10-05T09:23:08.577Z,99.90
2018-10-05T09:25:40.616Z,99.90
2018-10-05T09:28:13.742Z,99.90
2018-10-05T09:30:45.667Z,99.90
2018-10-05T09:33:19.562Z,99.90
2018-10-05T09:35:48.893Z,99.90
2018-10-05T09:38:19.389Z,99.90
2018-10-05T09:40:48.770Z,99.90
2018-10-05T09:43:17.801Z,99.90
2018-10-05T09:45:47.356Z,99.90
2018-10-05T09:48:16.277Z,99.90
2018-10-05T09:50:46.050Z,99.90
2018-10-05T09:53:16.445Z,99.90
2018-10-05T09:55:47.819Z,99.90
2018-10-05T09:58:19.484Z,99.90
2018-10-05T10:00:55.405Z,99.90
2018-10-05T10:03:34.844Z,99.90
2018-10-05T10:06:05.764Z,99.90
2018-10-05T10:08:37.819Z,99.90
2018-10-05T10:11:07.079Z,99.90
2018-10-05T10:13:37.311Z,99.90
2018-10-05T10:16:07.894Z,99.90
2018-10-05T10:18:37.455Z,99.90
2018-10-05T10:21:06.179Z,99.90
2018-10-05T10:23:34.654Z,99.90
2018-10-05T10:26:04.458Z,99.90
2018-10-05T10:28:33.701Z,99.90
2018-10-05T10:31:02.273Z,99.90
2018-10-05T10:33:30.713Z,99.90
2018-10-05T10:35:59.042Z,99.90
2018-10-05T10:38:27.416Z,99.90
2018-10-05T10:40:55.894Z,99.90
2018-10-05T10:43:24.353Z,99.90
2018-10-05T10:45:53.252Z,99.90
2018-10-05T10:48:22.507Z,99.90
2018-10-05T10:50:51.279Z,99.90
2018-10-05T10:53:19.861Z,99.90
2018-10-05T10:55:48.465Z,99.90
2018-10-05T10:58:16.951Z,99.90
2018-10-05T11:00:45.796Z,99.90
2018-10-05T11:03:14.494Z,99.90
2018-10-05T11:05:42.835Z,99.90
2018-10-05T11:08:11.279Z,99.90
2018-10-05T11:10:40.037Z,99.90
2018-10-05T11:13:08.509Z,99.90
2018-10-05T11:15:36.856Z,99.90
2018-10-05T11:18:05.751Z,99.90
2018-10-05T11:20:34.300Z,99.90
2018-10-05T11:23:02.633Z,99.90
2018-10-05T11:25:31.002Z,99.90
2018-10-05T11:27:59.382Z,99.90
2018-10-05T11:30:27.759Z,99.90
2018-10-05T11:32:56.019Z,99.90
2018-10-05T11:35:24.442Z,99.90
2018-10-05T11:37:52.730Z,99.90
2018-10-05T11:40:20.984Z,99.90
2018-10-05T11:42:49.363Z,99.90
2018-10-05T11:45:17.679Z,99.90
2018-10-05T11:47:46.034Z,99.90
2018-10-05T11:50:14.287Z,99.90
2018-10-05T11:52:42.603Z,99.90
2018-10-05T11:55:10.875Z,99.90
2018-10-05T11:57:39.169Z,99.80
2018-10-05T12:00:08.266Z,99.60
2018-10-05T12:02:36.693Z,99.50
2018-10-05T12:05:05.021Z,99.10
2018-10-05T12:07:34.018Z,98.80
2018-10-05T12:10:02.327Z,98.90
2018-10-05T12:12:31.400Z,98.60
2018-10-05T12:15:00.020Z,98.30
2018-10-05T12:17:30.506Z,98.10
2018-10-05T12:19:59.151Z,97.10
2018-10-05T12:22:27.411Z,97.50
2018-10-05T12:24:55.724Z,97.00
2018-10-05T12:27:23.973Z,97.30
2018-10-05T12:29:52.235Z,96.40
2018-10-05T12:32:20.545Z,96.20
2018-10-05T12:34:48.828Z,96.30
2018-10-05T12:37:17.162Z,96.30
2018-10-05T12:39:45.382Z,96.10
2018-10-05T12:42:13.679Z,95.20
2018-10-05T12:44:41.911Z,95.20
2018-10-05T12:47:10.211Z,95.20
2018-10-05T12:49:38.602Z,95.40
2018-10-05T12:52:06.855Z,94.90
2018-10-05T12:54:35.191Z,95.00
2018-10-05T12:57:03.488Z,94.60
2018-10-05T12:59:31.764Z,94.40
2018-10-05T13:02:00.088Z,93.60
2018-10-05T13:04:28.504Z,93.00
2018-10-05T13:06:56.917Z,93.50
2018-10-05T13:09:25.415Z,93.20
2018-10-05T13:11:53.688Z,92.90
2018-10-05T13:14:22.008Z,92.20
2018-10-05T13:16:50.324Z,92.20
2018-10-05T13:19:18.707Z,91.80
2018-10-05T13:21:47.016Z,91.70
2018-10-05T13:24:15.356Z,92.20
2018-10-05T13:26:43.658Z,92.10
2018-10-05T13:29:11.961Z,91.80
2018-10-05T13:31:40.339Z,91.40
2018-10-05T13:34:08.718Z,91.30
2018-10-05T13:36:37.014Z,91.30
2018-10-05T13:39:08.656Z,91.50
2018-10-05T13:41:37.101Z,90.90
2018-10-05T13:44:05.408Z,90.80
2018-10-05T13:46:34.300Z,90.00
2018-10-05T13:49:03.450Z,89.00
2018-10-05T13:51:31.924Z,88.00
2018-10-05T13:54:00.253Z,88.60
2018-10-05T13:56:28.540Z,90.00
2018-10-05T13:58:56.963Z,88.90
2018-10-05T14:01:25.293Z,90.00
2018-10-05T14:03:53.624Z,89.30
2018-10-05T14:06:21.913Z,88.50
2018-10-05T14:08:50.169Z,89.00
2018-10-05T14:11:18.589Z,89.20
2018-10-05T14:13:49.880Z,89.10
2018-10-05T14:16:18.313Z,89.40
2018-10-05T14:18:46.748Z,89.90
2018-10-05T14:21:15.069Z,88.90
2018-10-05T14:23:43.519Z,89.60
2018-10-05T14:26:11.913Z,88.70
2018-10-05T14:28:41.656Z,89.40
2018-10-05T14:31:12.260Z,90.60
2018-10-05T14:33:41.625Z,91.60
2018-10-05T14:36:11.268Z,91.70
2018-10-05T14:38:40.172Z,92.10
2018-10-05T14:41:14.762Z,91.90
2018-10-05T14:43:44.985Z,91.70
2018-10-05T14:46:18.328Z,92.20
2018-10-05T14:49:04.657Z,92.20
2018-10-05T14:54:39.973Z,92.20
2018-10-05T14:57:14.284Z,92.90
2018-10-05T14:59:43.558Z,92.80
2018-10-05T15:02:15.403Z,92.90
2018-10-05T15:04:44.851Z,92.90
2018-10-05T15:07:16.092Z,92.80
2018-10-05T15:09:45.349Z,93.50
2018-10-05T15:12:15.583Z,93.90
2018-10-05T15:14:44.141Z,93.70
2018-10-05T15:17:12.704Z,94.20
2018-10-05T15:19:40.979Z,94.00
2018-10-05T15:22:09.573Z,94.00
2018-10-05T15:24:38.255Z,94.50
2018-10-05T15:27:08.028Z,93.80
2018-10-05T15:29:36.378Z,94.30
2018-10-05T15:32:05.224Z,94.50
2018-10-05T15:34:34.587Z,94.50
2018-10-05T15:37:03.004Z,94.80
2018-10-05T15:39:31.343Z,94.70
2018-10-05T15:41:59.864Z,94.90
2018-10-05T15:44:28.632Z,95.20
2018-10-05T15:47:01.369Z,95.00
2018-10-05T15:49:30.710Z,95.60
2018-10-05T15:52:01.036Z,95.90
2018-10-05T15:54:29.555Z,96.10
2018-10-05T15:56:57.977Z,96.00
2018-10-05T15:59:26.979Z,96.20
2018-10-05T16:01:56.028Z,96.20
2018-10-05T16:04:24.620Z,96.30
2018-10-05T16:06:53.440Z,96.80
2018-10-05T16:09:21.772Z,97.10
2018-10-05T16:11:50.177Z,97.00
2018-10-05T16:14:18.651Z,97.30
2018-10-05T16:16:47.577Z,97.40
2018-10-05T16:19:16.058Z,97.80
2018-10-05T16:21:44.380Z,98.30
2018-10-05T16:24:44.490Z,98.40
2018-10-05T16:27:14.224Z,98.70
2018-10-05T16:29:42.805Z,99.00
2018-10-05T16:32:11.927Z,99.50
2018-10-05T16:34:40.491Z,99.60
2018-10-05T16:37:08.753Z,99.90
2018-10-05T16:39:37.232Z,99.90
2018-10-05T16:42:05.603Z,99.90
2018-10-05T16:44:33.977Z,99.90
2018-10-05T16:47:02.277Z,99.90
2018-10-05T16:49:30.558Z,99.90
2018-10-05T16:51:58.843Z,99.90
2018-10-05T16:54:27.177Z,99.90
2018-10-05T16:56:55.486Z,99.90
2018-10-05T16:59:23.836Z,99.90
2018-10-05T17:01:52.094Z,99.90
2018-10-05T17:04:20.933Z,99.90
2018-10-05T17:06:51.858Z,99.90
2018-10-05T17:09:20.353Z,99.90
2018-10-05T17:11:48.871Z,99.90
2018-10-05T17:14:17.368Z,99.90
2018-10-05T17:16:45.968Z,99.90
2018-10-05T17:19:14.336Z,99.90
2018-10-05T17:21:42.801Z,99.90
2018-10-05T17:24:11.085Z,99.90
2018-10-05T17:26:39.838Z,99.90
2018-10-05T17:29:08.139Z,99.90
2018-10-05T17:31:36.448Z,99.90
2018-10-05T17:34:04.796Z,99.90
2018-10-05T17:36:33.094Z,99.90
2018-10-05T17:39:01.430Z,99.90
2018-10-05T17:41:29.621Z,99.90
2018-10-05T17:43:58.628Z,99.90
2018-10-05T17:46:27.626Z,99.90
2018-10-05T17:48:55.949Z,99.90
2018-10-05T17:51:34.330Z,99.90
2018-10-05T17:54:02.571Z,99.90
2018-10-05T17:56:30.885Z,99.90
2018-10-05T17:58:59.345Z,99.90
2018-10-05T18:01:27.668Z,99.90
2018-10-05T18:03:55.944Z,99.90
2018-10-05T18:06:24.178Z,99.90
2018-10-05T18:08:52.504Z,99.90
2018-10-05T18:11:20.953Z,99.90
2018-10-05T18:13:51.447Z,99.90
2018-10-05T18:16:20.533Z,99.90
2018-10-05T18:22:17.996Z,99.90
2018-10-05T18:24:46.486Z,99.90
2018-10-05T18:27:14.791Z,99.90
2018-10-05T18:29:43.209Z,99.90
2018-10-05T18:32:17.715Z,99.90
2018-10-05T18:34:46.041Z,99.90
2018-10-05T18:37:14.511Z,99.90
2018-10-05T18:39:47.065Z,99.90
2018-10-05T18:42:15.699Z,99.90
2018-10-05T18:44:44.257Z,99.90
2018-10-05T18:47:12.701Z,99.90
2018-10-05T18:49:41.477Z,99.90
2018-10-05T18:52:09.844Z,99.90
2018-10-05T18:54:38.501Z,99.90
2018-10-05T18:57:15.947Z,99.90
2018-10-05T18:59:45.355Z,99.90
2018-10-05T19:02:16.312Z,99.90
2018-10-05T19:04:46.664Z,99.90
2018-10-05T19:07:15.249Z,99.90
2018-10-05T19:09:44.232Z,99.90
2018-10-05T19:12:12.944Z,99.90
2018-10-05T19:14:47.205Z,99.90
2018-10-05T19:19:56.716Z,99.90
2018-10-05T19:22:25.863Z,99.90
2018-10-05T19:24:55.313Z,99.90
2018-10-05T19:27:24.357Z,99.90
2018-10-05T19:29:52.966Z,99.90
2018-10-05T19:32:21.495Z,99.90
2018-10-05T19:34:49.936Z,99.90
2018-10-05T19:37:18.767Z,99.90
2018-10-05T19:39:47.356Z,99.90
2018-10-05T19:42:15.894Z,99.90
2018-10-05T19:44:44.839Z,99.90
2018-10-05T19:47:13.728Z,99.90
2018-10-05T19:49:42.978Z,99.90
2018-10-05T19:52:14.644Z,99.90
2018-10-05T19:54:43.200Z,99.90
2018-10-05T19:57:11.759Z,99.90
2018-10-05T19:59:40.539Z,99.90
2018-10-05T20:02:09.160Z,99.90
2018-10-05T20:04:38.008Z,99.90
2018-10-05T20:07:07.572Z,99.90
2018-10-05T20:12:18.771Z,99.90
2018-10-05T20:14:47.248Z,99.90
2018-10-05T20:17:16.103Z,99.90
2018-10-05T20:19:49.941Z,99.90
2018-10-05T20:22:18.593Z,99.90
2018-10-05T20:24:47.325Z,99.90
2018-10-05T20:27:15.788Z,99.90
2018-10-05T20:29:45.019Z,99.90
2018-10-05T20:32:14.711Z,99.90
2018-10-05T20:34:44.401Z,99.90
2018-10-05T20:37:14.639Z,99.90
2018-10-05T20:45:47.663Z,99.90
2018-10-05T20:48:16.563Z,99.90
2018-10-05T20:50:46.780Z,99.90
2018-10-05T20:53:15.761Z,99.90
2018-10-05T20:55:47.843Z,99.90
2018-10-05T20:58:20.107Z,99.90
2018-10-05T21:00:48.388Z,99.90
2018-10-05T21:03:16.685Z,99.90
2018-10-05T21:05:44.972Z,99.90
2018-10-05T21:08:13.286Z,99.90
2018-10-05T21:10:41.593Z,99.90
2018-10-05T21:13:09.972Z,99.90
2018-10-05T21:15:38.269Z,99.90
2018-10-05T21:18:07.196Z,99.90
2018-10-05T21:20:35.520Z,99.90
2018-10-05T21:23:03.833Z,99.90
2018-10-05T21:25:32.196Z,99.90
2018-10-05T21:28:01.072Z,99.90
2018-10-05T21:30:29.495Z,99.90
2018-10-05T21:32:57.875Z,99.90
2018-10-05T21:35:26.009Z,99.90
2018-10-05T21:37:54.326Z,99.90
2018-10-05T21:40:22.663Z,99.90
2018-10-05T21:42:50.981Z,99.90
2018-10-05T21:45:19.284Z,99.90
2018-10-05T21:47:47.571Z,99.90
2018-10-05T21:50:15.843Z,99.90
2018-10-05T21:52:44.190Z,99.90
2018-10-05T21:55:12.628Z,99.90
2018-10-05T21:57:40.899Z,99.90
2018-10-05T22:00:09.293Z,99.90
2018-10-05T22:02:37.695Z,99.90
2018-10-05T22:05:08.049Z,99.90
2018-10-05T22:07:36.448Z,99.90
2018-10-05T22:10:04.728Z,99.90
2018-10-05T22:12:33.111Z,99.90
2018-10-05T22:15:03.307Z,99.90
2018-10-05T22:17:34.119Z,99.90
2018-10-05T22:20:02.550Z,99.90
2018-10-05T22:22:30.819Z,99.90
2018-10-05T22:24:59.085Z,99.90
2018-10-05T22:27:27.380Z,99.90
2018-10-05T22:29:55.649Z,99.90
2018-10-05T22:32:24.086Z,99.90
2018-10-05T22:34:52.360Z,99.90
2018-10-05T22:37:20.658Z,99.90
2018-10-05T22:39:48.978Z,99.90
2018-10-05T22:42:17.266Z,99.90
2018-10-05T22:44:45.538Z,99.90
2018-10-05T22:47:13.856Z,99.90
2018-10-05T22:49:42.106Z,99.90
2018-10-05T22:52:10.480Z,99.90
2018-10-05T22:54:38.884Z,99.90
2018-10-05T22:57:07.214Z,99.90
2018-10-05T22:59:35.508Z,99.90
2018-10-05T23:02:03.837Z,99.90
2018-10-05T23:04:32.182Z,99.90
2018-10-05T23:07:00.355Z,99.90
2018-10-05T23:09:28.670Z,99.90
2018-10-05T23:11:56.922Z,99.90
2018-10-05T23:14:25.303Z,99.90
2018-10-05T23:16:53.568Z,99.90
2018-10-05T23:19:21.826Z,99.90
2018-10-05T23:21:50.108Z,99.90
2018-10-05T23:24:18.411Z,99.90
2018-10-05T23:26:46.715Z,99.90
2018-10-05T23:29:14.955Z,99.90
2018-10-05T23:31:43.292Z,99.90
2018-10-05T23:34:11.640Z,99.90
2018-10-05T23:36:39.963Z,99.90
2018-10-05T23:39:09.798Z,99.90
2018-10-05T23:41:38.061Z,99.90
2018-10-05T23:44:06.452Z,99.90
2018-10-05T23:46:34.817Z,99.90
2018-10-05T23:49:03.237Z,99.90
2018-10-05T23:51:31.586Z,99.90
2018-10-05T23:53:59.985Z,99.90
2018-10-05T23:56:28.307Z,99.90
2018-10-05T23:58:56.814Z,99.90
